createdAt,value
2016-09-02T00:00:50.477Z,12.35
2016-09-02T00:01:51.201Z,12.3
2016-09-02T00:02:51.946Z,12.33
2016-09-02T00:03:51.937Z,12.32
2016-09-02T00:04:51.377Z,12.29
2016-09-02T00:05:50.588Z,12.28
2016-09-02T00:06:51.304Z,12.36
2016-09-02T00:07:50.673Z,12.33
2016-09-02T00:08:52.087Z,12.35
2016-09-02T00:09:51.362Z,12.32
2016-09-02T00:10:52.104Z,12.35
2016-09-02T00:11:50.803Z,12.25
2016-09-02T00:12:51.432Z,12.28
2016-09-02T00:13:51.456Z,12.17
2016-09-02T00:14:51.457Z,12.2
2016-09-02T00:15:50.838Z,12.26
2016-09-02T00:16:51.524Z,12.15
2016-09-02T00:17:51.718Z,12.14
2016-09-02T00:18:51.557Z,12.12
2016-09-02T00:19:50.856Z,12.15
2016-09-02T00:20:52.306Z,12.12
2016-09-02T00:21:51.613Z,12.12
2016-09-02T00:22:51.645Z,12.1
2016-09-02T00:23:51.691Z,12.07
2016-09-02T00:24:51.681Z,12.03
2016-09-02T00:25:51.693Z,12.1
2016-09-02T00:26:51.717Z,12.03
2016-09-02T00:27:51.742Z,12
2016-09-02T00:28:52.466Z,12.08
2016-09-02T00:29:51.796Z,12.12
2016-09-02T00:30:52.598Z,12.14
2016-09-02T00:31:52.526Z,12.11
2016-09-02T00:32:51.153Z,12.23
2016-09-02T00:33:52.551Z,12.15
2016-09-02T00:34:52.706Z,12.15
2016-09-02T00:35:51.913Z,12.15
2016-09-02T00:36:51.928Z,12.14
2016-09-02T00:37:52.018Z,12.02
2016-09-02T00:38:52.676Z,12.14
2016-09-02T00:39:52.036Z,12.15
2016-09-02T00:40:52.716Z,12.21
2016-09-02T00:41:52.038Z,12.21
2016-09-02T00:42:52.743Z,12.23
2016-09-02T00:43:52.067Z,12.26
2016-09-02T00:44:52.796Z,12.12
2016-09-02T00:45:52.096Z,11.97
2016-09-02T00:46:52.115Z,12.07
2016-09-02T00:47:52.869Z,12.08
2016-09-02T00:48:51.455Z,12.08
2016-09-02T00:49:51.473Z,12.1
2016-09-02T00:50:52.215Z,12.12
2016-09-02T00:51:52.242Z,12.07
2016-09-02T00:52:53.076Z,12.11
2016-09-02T00:53:52.265Z,12.05
2016-09-02T00:54:52.302Z,12.08
2016-09-02T00:55:53.027Z,12.1
2016-09-02T00:56:52.335Z,11.99
2016-09-02T00:57:51.641Z,11.93
2016-09-02T00:58:51.745Z,11.96
2016-09-02T00:59:53.116Z,11.99
2016-09-02T01:00:52.399Z,11.97
2016-09-02T01:01:51.727Z,11.96
2016-09-02T01:02:52.443Z,12.03
2016-09-02T01:03:52.826Z,11.99
2016-09-02T01:04:52.504Z,12.02
2016-09-02T01:05:51.884Z,12.07
2016-09-02T01:06:52.546Z,11.99
2016-09-02T01:07:52.626Z,12
2016-09-02T01:08:53.381Z,11.96
2016-09-02T01:09:52.683Z,11.95
2016-09-02T01:10:51.993Z,11.99
2016-09-02T01:11:52.624Z,11.91
2016-09-02T01:12:53.344Z,11.95
2016-09-02T01:13:51.983Z,11.91
2016-09-02T01:14:52.703Z,11.88
2016-09-02T01:15:52.715Z,11.8
2016-09-02T01:16:52.755Z,11.89
2016-09-02T01:17:52.792Z,11.91
2016-09-02T01:18:52.792Z,11.95
2016-09-02T01:19:52.793Z,11.95
2016-09-02T01:20:52.113Z,11.81
2016-09-02T01:21:52.867Z,11.88
2016-09-02T01:22:52.138Z,11.81
2016-09-02T01:23:52.978Z,11.78
2016-09-02T01:24:52.912Z,11.77
2016-09-02T01:25:52.304Z,11.71
2016-09-02T01:26:52.235Z,11.83
2016-09-02T01:27:52.337Z,11.73
2016-09-02T01:28:52.983Z,11.77
2016-09-02T01:29:52.343Z,11.73
2016-09-02T01:30:52.304Z,11.71
2016-09-02T01:31:53.103Z,11.7
2016-09-02T01:32:53.764Z,11.67
2016-09-02T01:33:52.386Z,11.67
2016-09-02T01:34:53.091Z,11.68
2016-09-02T01:35:53.117Z,11.73
2016-09-02T01:36:53.147Z,11.65
2016-09-02T01:37:53.153Z,11.7
2016-09-02T01:38:53.893Z,11.71
2016-09-02T01:39:53.193Z,11.63
2016-09-02T01:40:53.322Z,11.63
2016-09-02T01:41:53.951Z,11.53
2016-09-02T01:42:53.253Z,11.56
2016-09-02T01:43:53.275Z,11.49
2016-09-02T01:44:52.667Z,11.56
2016-09-02T01:45:52.616Z,11.56
2016-09-02T01:46:53.354Z,11.51
2016-09-02T01:47:52.659Z,11.45
2016-09-02T01:48:53.378Z,11.48
2016-09-02T01:49:53.505Z,11.41
2016-09-02T01:50:53.425Z,11.3
2016-09-02T01:51:54.142Z,11.34
2016-09-02T01:52:52.757Z,11.33
2016-09-02T01:53:53.551Z,11.37
2016-09-02T01:54:53.522Z,11.31
2016-09-02T01:55:54.251Z,11.33
2016-09-02T01:56:52.837Z,11.37
2016-09-02T01:57:53.566Z,11.35
2016-09-02T01:58:52.873Z,11.37
2016-09-02T01:59:54.366Z,11.48
2016-09-02T02:00:53.633Z,11.35
2016-09-02T02:01:53.674Z,11.37
2016-09-02T02:02:53.689Z,11.34
2016-09-02T02:03:53.702Z,11.31
2016-09-02T02:04:53.712Z,11.25
2016-09-02T02:05:53.024Z,11.23
2016-09-02T02:06:53.754Z,11.27
2016-09-02T02:07:54.480Z,11.26
2016-09-02T02:08:53.791Z,11.23
2016-09-02T02:09:54.524Z,11.16
2016-09-02T02:10:54.528Z,11.16
2016-09-02T02:11:53.851Z,11.12
2016-09-02T02:12:54.624Z,11.15
2016-09-02T02:13:53.188Z,11.02
2016-09-02T02:14:53.909Z,11.07
2016-09-02T02:15:54.042Z,11.01
2016-09-02T02:16:53.235Z,10.97
2016-09-02T02:17:53.991Z,11
2016-09-02T02:18:53.284Z,11.01
2016-09-02T02:19:54.819Z,10.95
2016-09-02T02:20:54.743Z,11.01
2016-09-02T02:21:54.802Z,10.97
2016-09-02T02:22:54.074Z,11
2016-09-02T02:23:53.382Z,11.02
2016-09-02T02:24:54.814Z,11.01
2016-09-02T02:25:54.131Z,11.04
2016-09-02T02:26:54.149Z,10.92
2016-09-02T02:27:54.879Z,10.87
2016-09-02T02:28:54.892Z,10.89
2016-09-02T02:29:54.214Z,10.89
2016-09-02T02:30:54.937Z,10.87
2016-09-02T02:31:54.952Z,10.86
2016-09-02T02:32:53.561Z,10.87
2016-09-02T02:33:53.572Z,10.86
2016-09-02T02:34:53.598Z,10.87
2016-09-02T02:35:53.623Z,10.83
2016-09-02T02:36:53.629Z,10.72
2016-09-02T02:37:54.361Z,10.76
2016-09-02T02:38:55.134Z,10.84
2016-09-02T02:39:53.698Z,10.76
2016-09-02T02:40:55.135Z,10.64
2016-09-02T02:41:55.145Z,10.68
2016-09-02T02:42:54.461Z,10.65
2016-09-02T02:43:54.490Z,10.62
2016-09-02T02:44:53.789Z,10.61
2016-09-02T02:45:54.612Z,10.57
2016-09-02T02:46:53.842Z,10.53
2016-09-02T02:47:55.312Z,10.49
2016-09-02T02:48:54.571Z,10.49
2016-09-02T02:49:54.613Z,10.41
2016-09-02T02:50:54.620Z,10.39
2016-09-02T02:51:53.941Z,10.43
2016-09-02T02:52:54.669Z,10.39
2016-09-02T02:53:55.389Z,10.34
2016-09-02T02:54:55.403Z,10.41
2016-09-02T02:55:54.720Z,10.3
2016-09-02T02:56:54.733Z,10.3
2016-09-02T02:57:54.762Z,10.3
2016-09-02T02:58:54.860Z,10.27
2016-09-02T02:59:55.502Z,10.34
2016-09-02T03:00:54.912Z,10.34
2016-09-02T03:01:54.832Z,10.38
2016-09-02T03:02:54.860Z,10.39
2016-09-02T03:03:54.882Z,10.51
2016-09-02T03:04:54.893Z,10.53
2016-09-02T03:05:54.253Z,10.57
2016-09-02T03:06:54.231Z,10.49
2016-09-02T03:07:54.951Z,10.64
2016-09-02T03:08:55.685Z,10.49
2016-09-02T03:09:55.030Z,10.58
2016-09-02T03:10:55.712Z,10.51
2016-09-02T03:11:55.729Z,10.53
2016-09-02T03:12:54.344Z,10.49
2016-09-02T03:13:55.765Z,10.51
2016-09-02T03:14:55.091Z,10.59
2016-09-02T03:15:55.848Z,10.58
2016-09-02T03:16:55.131Z,10.64
2016-09-02T03:17:55.141Z,10.48
2016-09-02T03:18:54.568Z,10.53
2016-09-02T03:19:55.188Z,10.58
2016-09-02T03:20:54.513Z,10.61
2016-09-02T03:21:55.233Z,10.61
2016-09-02T03:22:56.040Z,10.55
2016-09-02T03:23:55.273Z,10.58
2016-09-02T03:24:55.996Z,10.57
2016-09-02T03:25:55.303Z,10.64
2016-09-02T03:26:56.030Z,10.59
2016-09-02T03:27:54.751Z,10.57
2016-09-02T03:28:55.355Z,10.64
2016-09-02T03:29:56.086Z,10.62
2016-09-02T03:30:55.402Z,10.64
2016-09-02T03:31:55.423Z,10.53
2016-09-02T03:32:56.252Z,10.61
2016-09-02T03:33:54.772Z,10.46
2016-09-02T03:34:54.772Z,10.55
2016-09-02T03:35:54.884Z,10.59
2016-09-02T03:36:55.713Z,10.55
2016-09-02T03:38:27.271Z,10.58
2016-09-02T03:38:55.662Z,10.61
2016-09-02T03:39:54.864Z,10.58
2016-09-02T03:40:55.695Z,10.67
2016-09-02T03:41:55.704Z,10.61
2016-09-02T03:42:55.743Z,10.64
2016-09-02T03:43:55.693Z,10.61
2016-09-02T03:44:56.385Z,10.76
2016-09-02T03:45:55.743Z,10.79
2016-09-02T03:46:55.042Z,10.61
2016-09-02T03:47:55.235Z,10.72
2016-09-02T03:48:55.753Z,10.75
2016-09-02T03:49:55.057Z,10.65
2016-09-02T03:50:55.795Z,10.69
2016-09-02T03:51:55.795Z,10.65
2016-09-02T03:52:55.836Z,10.65
2016-09-02T03:53:55.157Z,10.65
2016-09-02T03:54:55.162Z,10.72
2016-09-02T03:55:55.182Z,10.68
2016-09-02T03:56:56.644Z,10.64
2016-09-02T03:57:56.002Z,10.71
2016-09-02T03:58:56.653Z,10.75
2016-09-02T03:59:56.019Z,10.79
2016-09-02T04:00:55.284Z,10.79
2016-09-02T04:01:56.010Z,10.77
2016-09-02T04:02:55.325Z,10.71
2016-09-02T04:03:56.094Z,10.76
2016-09-02T04:04:56.062Z,10.72
2016-09-02T04:05:56.085Z,10.83
2016-09-02T04:06:56.111Z,10.72
2016-09-02T04:07:56.128Z,10.72
2016-09-02T04:08:56.233Z,10.76
2016-09-02T04:09:56.882Z,10.71
2016-09-02T04:10:56.892Z,10.72
2016-09-02T04:11:55.497Z,10.8
2016-09-02T04:12:56.986Z,10.84
2016-09-02T04:13:55.529Z,10.94
2016-09-02T04:14:56.250Z,10.94
2016-09-02T04:15:56.275Z,10.87
2016-09-02T04:16:55.596Z,10.98
2016-09-02T04:17:56.338Z,11.01
2016-09-02T04:18:56.341Z,11.07
2016-09-02T04:19:57.083Z,11.02
2016-09-02T04:20:57.084Z,11.1
2016-09-02T04:21:55.690Z,11.07
2016-09-02T04:22:55.711Z,11.1
2016-09-02T04:23:55.731Z,11.1
2016-09-02T04:24:57.168Z,11.19
2016-09-02T04:25:57.188Z,11.15
2016-09-02T04:26:56.503Z,11.2
2016-09-02T04:27:57.236Z,11.16
2016-09-02T04:28:56.532Z,11.22
2016-09-02T04:29:55.988Z,11.26
2016-09-02T04:30:56.022Z,11.34
2016-09-02T04:31:56.599Z,11.33
2016-09-02T04:32:56.613Z,11.33
2016-09-02T04:33:57.344Z,11.41
2016-09-02T04:34:56.653Z,11.49
2016-09-02T04:35:57.386Z,11.44
2016-09-02T04:36:56.749Z,11.52
2016-09-02T04:37:56.715Z,11.58
2016-09-02T04:38:57.561Z,11.52
2016-09-02T04:39:57.462Z,11.53
2016-09-02T04:40:56.108Z,11.59
2016-09-02T04:41:56.291Z,11.59
2016-09-02T04:42:56.872Z,11.63
2016-09-02T04:43:56.823Z,11.76
2016-09-02T04:44:56.874Z,11.71
2016-09-02T04:45:56.874Z,11.8
2016-09-02T04:46:56.909Z,11.81
2016-09-02T04:47:56.338Z,11.88
2016-09-02T04:48:56.925Z,11.88
2016-09-02T04:49:57.072Z,11.99
2016-09-02T04:50:56.254Z,11.95
2016-09-02T04:51:57.715Z,12.03
2016-09-02T04:52:56.301Z,12.1
2016-09-02T04:53:56.333Z,12.2
2016-09-02T04:54:57.054Z,12.11
2016-09-02T04:55:57.072Z,12.26
2016-09-02T04:56:57.106Z,12.36
2016-09-02T04:57:57.824Z,12.28
2016-09-02T04:58:57.120Z,12.4
2016-09-02T04:59:57.145Z,12.39
2016-09-02T05:00:57.172Z,12.43
2016-09-02T05:01:57.181Z,12.51
2016-09-02T05:02:58.065Z,12.5
2016-09-02T05:03:56.523Z,12.62
2016-09-02T05:04:58.020Z,12.62
2016-09-02T05:05:57.284Z,12.76
2016-09-02T05:06:56.592Z,12.75
2016-09-02T05:07:57.316Z,12.86
2016-09-02T05:08:56.624Z,12.86
2016-09-02T05:09:57.441Z,12.95
2016-09-02T05:10:58.064Z,13.05
2016-09-02T05:11:58.082Z,12.98
2016-09-02T05:12:57.423Z,13.05
2016-09-02T05:13:57.443Z,13.06
2016-09-02T05:14:57.454Z,13.2
2016-09-02T05:15:58.230Z,13.33
2016-09-02T05:16:58.194Z,13.21
2016-09-02T05:17:57.522Z,13.24
2016-09-02T05:18:58.240Z,13.4
2016-09-02T05:19:56.854Z,13.37
2016-09-02T05:20:58.284Z,13.33
2016-09-02T05:21:57.613Z,13.43
2016-09-02T05:22:57.606Z,13.5
2016-09-02T05:23:57.644Z,13.46
2016-09-02T05:24:57.717Z,13.55
2016-09-02T05:25:56.972Z,13.61
2016-09-02T05:26:57.003Z,13.65
2016-09-02T05:27:57.013Z,13.78
2016-09-02T05:28:58.453Z,13.87
2016-09-02T05:29:57.058Z,13.8
2016-09-02T05:30:57.789Z,13.98
2016-09-02T05:31:57.821Z,13.97
2016-09-02T05:32:58.554Z,13.97
2016-09-02T05:33:57.843Z,14.08
2016-09-02T05:34:57.860Z,14.08
2016-09-02T05:35:57.900Z,14.07
2016-09-02T05:36:57.918Z,14.19
2016-09-02T05:37:58.633Z,14.22
2016-09-02T05:38:58.671Z,14.2
2016-09-02T05:39:58.059Z,14.26
2016-09-02T05:40:58.715Z,14.23
2016-09-02T05:41:58.733Z,14.25
2016-09-02T05:42:58.040Z,14.36
2016-09-02T05:43:58.112Z,14.45
2016-09-02T05:44:58.085Z,14.38
2016-09-02T05:45:58.188Z,14.52
2016-09-02T05:46:57.412Z,14.44
2016-09-02T05:47:58.162Z,14.53
2016-09-02T05:48:58.173Z,14.61
2016-09-02T05:49:58.204Z,14.58
2016-09-02T05:50:58.916Z,14.71
2016-09-02T05:51:58.238Z,14.67
2016-09-02T05:52:57.548Z,14.77
2016-09-02T05:53:58.993Z,14.86
2016-09-02T05:54:57.586Z,14.89
2016-09-02T05:55:57.654Z,15.18
2016-09-02T05:56:59.124Z,15.51
2016-09-02T05:57:58.370Z,16.06
2016-09-02T05:58:58.386Z,16.28
2016-09-02T05:59:58.507Z,16.29
2016-09-02T06:00:57.724Z,16.41
2016-09-02T06:01:58.464Z,16.4
2016-09-02T06:02:58.480Z,16.64
2016-09-02T06:03:57.792Z,16.66
2016-09-02T06:04:57.835Z,16.65
2016-09-02T06:05:59.665Z,16.54
2016-09-02T06:06:58.553Z,16.66
2016-09-02T06:07:59.303Z,16.68
2016-09-02T06:08:57.893Z,16.69
2016-09-02T06:09:58.895Z,16.69
2016-09-02T06:10:57.955Z,16.69
2016-09-02T06:11:59.492Z,16.76
2016-09-02T06:12:57.988Z,16.95
2016-09-02T06:13:58.893Z,16.92
2016-09-02T06:14:58.893Z,16.95
2016-09-02T06:15:58.052Z,16.99
2016-09-02T06:16:59.505Z,16.97
2016-09-02T06:17:58.134Z,16.92
2016-09-02T06:18:58.115Z,16.83
2016-09-02T06:19:59.585Z,16.92
2016-09-02T06:20:58.191Z,16.83
2016-09-02T06:21:58.916Z,17.04
2016-09-02T06:22:58.293Z,17.13
2016-09-02T06:23:58.992Z,17.3
2016-09-02T06:24:58.269Z,17.69
2016-09-02T06:25:59.110Z,17.75
2016-09-02T06:26:59.735Z,17.82
2016-09-02T06:27:58.403Z,17.84
2016-09-02T06:28:59.079Z,17.9
2016-09-02T06:29:59.105Z,18.24
2016-09-02T06:30:59.121Z,19.15
2016-09-02T06:31:59.133Z,19.97
2016-09-02T06:32:59.160Z,20.48
2016-09-02T06:33:59.193Z,20.88
2016-09-02T06:34:59.206Z,21.4
2016-09-02T06:35:58.539Z,21.92
2016-09-02T06:36:58.602Z,22.33
2016-09-02T06:37:59.314Z,22.84
2016-09-02T06:38:58.746Z,23.59
2016-09-02T06:39:59.339Z,24.38
2016-09-02T06:41:00.120Z,24.89
2016-09-02T06:42:00.094Z,24.88
2016-09-02T06:42:59.492Z,24.69
2016-09-02T06:44:00.196Z,24.79
2016-09-02T06:44:58.765Z,25.81
2016-09-02T06:45:59.793Z,26.76
2016-09-02T06:47:00.235Z,27.2
2016-09-02T06:47:58.926Z,27.53
2016-09-02T06:48:59.672Z,27.47
2016-09-02T06:49:59.056Z,27.82
2016-09-02T06:50:58.995Z,28
2016-09-02T06:51:59.054Z,28.13
2016-09-02T06:52:59.686Z,28.33
2016-09-02T06:54:00.455Z,28.18
2016-09-02T06:55:00.446Z,28.15
2016-09-02T06:55:59.753Z,28.19
2016-09-02T06:56:59.792Z,28.12
2016-09-02T06:57:59.113Z,28.2
2016-09-02T06:58:59.853Z,28.37
2016-09-02T06:59:59.954Z,28.3
2016-09-02T07:00:59.303Z,28.4
2016-09-02T07:01:59.945Z,28.59
2016-09-02T07:02:59.297Z,28.67
2016-09-02T07:03:59.283Z,28.75
2016-09-02T07:04:59.313Z,29
2016-09-02T07:05:59.333Z,29.44
2016-09-02T07:06:59.379Z,29.96
2016-09-02T07:08:00.794Z,30.23
2016-09-02T07:09:00.835Z,30.62
2016-09-02T07:10:00.164Z,30.59
2016-09-02T07:11:00.892Z,30.59
2016-09-02T07:11:59.584Z,30.27
2016-09-02T07:12:59.555Z,30.26
2016-09-02T07:13:59.573Z,30.39
2016-09-02T07:15:00.306Z,30.69
2016-09-02T07:16:00.345Z,30.8
2016-09-02T07:16:59.665Z,30.73
2016-09-02T07:18:01.101Z,30.62
2016-09-02T07:18:59.717Z,30.49
2016-09-02T07:20:01.159Z,30.05
2016-09-02T07:21:01.295Z,29.52
2016-09-02T07:22:00.501Z,29.18
2016-09-02T07:23:00.555Z,28.9
2016-09-02T07:24:00.588Z,28.72
2016-09-02T07:24:59.893Z,28.68
2016-09-02T07:26:00.630Z,28.41
2016-09-02T07:27:00.645Z,28.31
2016-09-02T07:27:59.981Z,28.03
2016-09-02T07:29:00.022Z,27.67
2016-09-02T07:30:00.036Z,27.19
2016-09-02T07:31:00.760Z,26.96
2016-09-02T07:32:00.813Z,26.89
2016-09-02T07:33:00.852Z,26.66
2016-09-02T07:34:00.166Z,26.37
2016-09-02T07:35:00.965Z,26.06
2016-09-02T07:36:00.927Z,25.98
2016-09-02T07:37:00.275Z,26.26
2016-09-02T07:38:00.981Z,26.76
2016-09-02T07:39:00.303Z,26.96
2016-09-02T07:40:01.732Z,26.96
2016-09-02T07:41:00.384Z,26.53
2016-09-02T07:42:00.382Z,26.07
2016-09-02T07:43:01.164Z,25.66
2016-09-02T07:44:01.153Z,25.29
2016-09-02T07:45:01.176Z,24.86
2016-09-02T07:46:01.232Z,24.66
2016-09-02T07:47:01.324Z,24.65
2016-09-02T07:48:01.306Z,24.43
2016-09-02T07:49:01.293Z,24.24
2016-09-02T07:50:02.021Z,24.01
2016-09-02T07:51:01.353Z,24
2016-09-02T07:52:01.383Z,23.73
2016-09-02T07:53:02.129Z,23.63
2016-09-02T07:54:02.135Z,23.54
2016-09-02T07:55:01.455Z,23.56
2016-09-02T07:56:01.491Z,23.52
2016-09-02T07:57:00.871Z,23.64
2016-09-02T07:58:01.559Z,23.86
2016-09-02T07:59:02.273Z,23.82
2016-09-02T08:00:01.605Z,23.92
2016-09-02T08:01:02.373Z,24.14
2016-09-02T08:02:01.655Z,24.21
2016-09-02T08:03:01.694Z,24.18
2016-09-02T08:04:01.727Z,24.14
2016-09-02T08:05:01.032Z,24.18
2016-09-02T08:06:01.764Z,24.18
2016-09-02T08:07:01.791Z,24.01
2016-09-02T08:08:01.802Z,24.03
2016-09-02T08:09:02.552Z,24
2016-09-02T08:10:01.873Z,23.86
2016-09-02T08:11:01.186Z,23.7
2016-09-02T08:12:01.926Z,23.63
2016-09-02T08:13:01.955Z,23.42
2016-09-02T08:14:01.993Z,23.49
2016-09-02T08:15:02.018Z,23.17
2016-09-02T08:16:02.795Z,23.2
2016-09-02T08:17:02.060Z,23.04
2016-09-02T08:18:02.083Z,23.01
2016-09-02T08:19:02.826Z,23.08
2016-09-02T08:20:02.133Z,23.33
2016-09-02T08:21:02.234Z,23.33
2016-09-02T08:22:02.343Z,23.39
2016-09-02T08:23:03.087Z,23.42
2016-09-02T08:24:02.404Z,23.55
2016-09-02T08:25:01.684Z,23.44
2016-09-02T08:26:02.413Z,23.51
2016-09-02T08:27:03.092Z,23.29
2016-09-02T08:28:02.424Z,23.34
2016-09-02T08:29:01.745Z,23.29
2016-09-02T08:30:02.412Z,23.26
2016-09-02T08:31:02.442Z,23.33
2016-09-02T08:32:03.260Z,23.52
2016-09-02T08:33:02.492Z,23.73
2016-09-02T08:34:01.822Z,23.85
2016-09-02T08:35:02.899Z,23.86
2016-09-02T08:36:02.592Z,23.95
2016-09-02T08:37:01.923Z,23.92
2016-09-02T08:38:03.407Z,24.03
2016-09-02T08:39:02.751Z,24.14
2016-09-02T08:40:03.378Z,24.04
2016-09-02T08:41:02.018Z,24.13
2016-09-02T08:42:02.743Z,24.21
2016-09-02T08:43:02.063Z,24.32
2016-09-02T08:44:02.885Z,24.48
2016-09-02T08:45:03.071Z,24.55
2016-09-02T08:46:02.841Z,24.63
2016-09-02T08:47:02.886Z,24.69
2016-09-02T08:48:02.906Z,24.59
2016-09-02T08:49:02.973Z,24.37
2016-09-02T08:50:03.671Z,24.25
2016-09-02T08:51:02.999Z,24.14
2016-09-02T08:52:03.005Z,24.43
2016-09-02T08:53:02.333Z,24.56
2016-09-02T08:54:03.798Z,24.75
2016-09-02T08:55:03.097Z,24.68
2016-09-02T08:56:03.141Z,24.71
2016-09-02T08:57:03.152Z,24.77
2016-09-02T08:58:03.185Z,24.92
2016-09-02T08:59:03.222Z,25.04
2016-09-02T09:00:02.530Z,25.3
2016-09-02T09:01:03.985Z,25.34
2016-09-02T09:02:04.001Z,25.41
2016-09-02T09:03:03.330Z,25.41
2016-09-02T09:04:03.342Z,25.63
2016-09-02T09:05:04.272Z,25.7
2016-09-02T09:06:04.113Z,25.68
2016-09-02T09:07:03.450Z,25.74
2016-09-02T09:08:04.193Z,25.78
2016-09-02T09:09:02.777Z,25.99
2016-09-02T09:10:02.933Z,26.13
2016-09-02T09:11:03.548Z,26.13
2016-09-02T09:12:03.611Z,26.13
2016-09-02T09:13:03.603Z,26.16
2016-09-02T09:14:04.361Z,26.26
2016-09-02T09:15:03.356Z,26.04
2016-09-02T09:16:02.992Z,25.91
2016-09-02T09:17:03.003Z,25.88
2016-09-02T09:18:04.462Z,25.88
2016-09-02T09:19:04.483Z,25.76
2016-09-02T09:20:03.812Z,25.61
2016-09-02T09:21:04.515Z,25.58
2016-09-02T09:22:04.582Z,25.61
2016-09-02T09:23:03.882Z,25.39
2016-09-02T09:24:03.912Z,25.25
2016-09-02T09:25:03.232Z,25.22
2016-09-02T09:26:03.953Z,25.16
2016-09-02T09:27:03.993Z,24.96
2016-09-02T09:28:04.716Z,24.84
2016-09-02T09:29:03.342Z,24.69
2016-09-02T09:30:03.563Z,24.47
2016-09-02T09:31:04.081Z,24.22
2016-09-02T09:32:04.131Z,24.11
2016-09-02T09:33:04.871Z,23.91
2016-09-02T09:34:04.192Z,23.85
2016-09-02T09:35:03.511Z,23.84
2016-09-02T09:36:04.997Z,23.73
2016-09-02T09:37:04.987Z,23.73
2016-09-02T09:38:03.601Z,23.63
2016-09-02T09:39:03.697Z,23.67
2016-09-02T09:40:05.083Z,23.73
2016-09-02T09:41:03.683Z,23.84
2016-09-02T09:42:03.701Z,23.99
2016-09-02T09:43:04.438Z,24.01
2016-09-02T09:44:05.162Z,24.01
2016-09-02T09:45:04.503Z,24.19
2016-09-02T09:46:05.232Z,24.14
2016-09-02T09:47:04.558Z,24.28
2016-09-02T09:48:05.293Z,24.38
2016-09-02T09:49:04.639Z,24.53
2016-09-02T09:50:04.254Z,24.78
2016-09-02T09:51:05.389Z,24.88
2016-09-02T09:52:04.688Z,25.14
2016-09-02T09:53:04.003Z,25.33
2016-09-02T09:54:04.831Z,25.56
2016-09-02T09:55:04.776Z,25.58
2016-09-02T09:56:04.089Z,25.77
2016-09-02T09:57:04.823Z,25.83
2016-09-02T09:58:04.849Z,26.01
2016-09-02T09:59:05.594Z,26.13
2016-09-02T10:00:04.913Z,26.19
2016-09-02T10:01:04.341Z,26.22
2016-09-02T10:02:04.971Z,26.34
2016-09-02T10:03:05.696Z,26.33
2016-09-02T10:04:05.032Z,26.36
2016-09-02T10:05:05.182Z,26.49
2016-09-02T10:06:04.363Z,26.7
2016-09-02T10:07:05.158Z,26.68
2016-09-02T10:08:04.426Z,26.73
2016-09-02T10:09:05.856Z,26.82
2016-09-02T10:10:05.922Z,26.81
2016-09-02T10:11:04.503Z,26.89
2016-09-02T10:12:05.937Z,26.98
2016-09-02T10:13:05.272Z,26.97
2016-09-02T10:14:05.310Z,26.98
2016-09-02T10:15:04.631Z,26.96
2016-09-02T10:16:05.358Z,26.74
2016-09-02T10:17:05.393Z,26.73
2016-09-02T10:18:05.435Z,26.7
2016-09-02T10:19:04.760Z,26.74
2016-09-02T10:20:06.382Z,26.64
2016-09-02T10:21:05.501Z,26.64
2016-09-02T10:22:04.822Z,26.73
2016-09-02T10:23:06.270Z,26.67
2016-09-02T10:24:05.586Z,26.56
2016-09-02T10:25:05.742Z,26.52
2016-09-02T10:26:06.361Z,26.33
2016-09-02T10:27:05.673Z,26.42
2016-09-02T10:28:05.691Z,26.55
2016-09-02T10:29:05.719Z,26.73
2016-09-02T10:30:05.773Z,26.86
2016-09-02T10:31:05.071Z,27.01
2016-09-02T10:32:05.111Z,27.15
2016-09-02T10:33:05.841Z,27.3
2016-09-02T10:34:05.879Z,27.38
2016-09-02T10:35:06.600Z,27.57
2016-09-02T10:36:06.641Z,27.44
2016-09-02T10:37:05.946Z,27.43
2016-09-02T10:38:06.690Z,27.53
2016-09-02T10:39:06.012Z,27.5
2016-09-02T10:40:06.764Z,27.44
2016-09-02T10:41:06.771Z,27.4
2016-09-02T10:42:06.091Z,27.53
2016-09-02T10:43:06.139Z,27.53
2016-09-02T10:44:06.159Z,27.66
2016-09-02T10:45:05.483Z,27.75
2016-09-02T10:46:05.493Z,27.68
2016-09-02T10:47:06.253Z,27.53
2016-09-02T10:48:06.302Z,27.6
2016-09-02T10:49:07.012Z,27.67
2016-09-02T10:50:05.631Z,27.76
2016-09-02T10:51:06.382Z,27.81
2016-09-02T10:52:06.400Z,27.94
2016-09-02T10:53:06.446Z,27.9
2016-09-02T10:54:06.562Z,27.93
2016-09-02T10:55:06.478Z,27.82
2016-09-02T10:56:05.799Z,27.93
2016-09-02T10:57:07.245Z,27.88
2016-09-02T10:58:07.287Z,27.75
2016-09-02T10:59:07.292Z,27.75
2016-09-02T11:00:07.259Z,27.72
2016-09-02T11:01:06.654Z,27.86
2016-09-02T11:02:05.967Z,27.97
2016-09-02T11:03:06.702Z,27.9
2016-09-02T11:04:07.442Z,27.76
2016-09-02T11:05:07.483Z,27.86
2016-09-02T11:06:06.804Z,28.06
2016-09-02T11:07:06.954Z,28.15
2016-09-02T11:08:06.863Z,28.04
2016-09-02T11:09:06.177Z,28.09
2016-09-02T11:10:07.633Z,28.13
2016-09-02T11:11:06.945Z,28.16
2016-09-02T11:12:06.259Z,28.19
2016-09-02T11:13:06.993Z,28.12
2016-09-02T11:14:07.033Z,28.06
2016-09-02T11:15:07.046Z,28.1
2016-09-02T11:16:06.454Z,28.04
2016-09-02T11:17:07.107Z,28.06
2016-09-02T11:18:06.455Z,28.15
2016-09-02T11:19:07.179Z,28.19
2016-09-02T11:20:07.230Z,28.34
2016-09-02T11:21:07.240Z,28.3
2016-09-02T11:22:07.284Z,28.09
2016-09-02T11:23:06.597Z,27.97
2016-09-02T11:24:08.034Z,27.95
2016-09-02T11:25:07.339Z,27.9
2016-09-02T11:26:07.373Z,27.98
2016-09-02T11:27:08.124Z,27.86
2016-09-02T11:28:08.146Z,27.76
2016-09-02T11:29:06.863Z,27.78
2016-09-02T11:30:08.200Z,27.79
2016-09-02T11:31:08.293Z,27.76
2016-09-02T11:32:06.963Z,27.64
2016-09-02T11:33:06.878Z,27.64
2016-09-02T11:34:07.612Z,27.53
2016-09-02T11:35:10.181Z,27.35
2016-09-02T11:36:08.527Z,26.98
2016-09-02T11:37:06.991Z,26.96
2016-09-02T11:38:07.733Z,26.92
2016-09-02T11:39:07.133Z,26.97
2016-09-02T11:40:08.782Z,26.74
2016-09-02T11:41:08.512Z,26.67
2016-09-02T11:42:07.843Z,26.86
2016-09-02T11:43:07.894Z,27.05
2016-09-02T11:44:07.194Z,27.11
2016-09-02T11:45:07.937Z,27.26
2016-09-02T11:46:07.942Z,27.22
2016-09-02T11:47:08.005Z,27.37
2016-09-02T11:48:08.734Z,27.37
2016-09-02T11:49:08.058Z,27.37
2016-09-02T11:50:08.215Z,27.34
2016-09-02T11:51:07.415Z,27.19
2016-09-02T11:52:07.433Z,27.18
2016-09-02T11:53:08.879Z,27.11
2016-09-02T11:54:07.502Z,26.98
2016-09-02T11:55:08.363Z,26.81
2016-09-02T11:56:08.253Z,26.76
2016-09-02T11:57:08.487Z,26.7
2016-09-02T11:58:08.303Z,26.55
2016-09-02T11:59:08.360Z,26.55
2016-09-02T12:00:09.082Z,26.44
2016-09-02T12:01:07.676Z,26.34
2016-09-02T12:02:08.414Z,26.34
2016-09-02T12:03:08.847Z,26.23
2016-09-02T12:04:09.186Z,26.18
2016-09-02T12:05:08.847Z,26.08
2016-09-02T12:06:09.249Z,26.01
2016-09-02T12:07:09.273Z,26.08
2016-09-02T12:08:07.864Z,26.03
2016-09-02T12:09:09.375Z,26.39
2016-09-02T12:10:08.024Z,26.53
2016-09-02T12:11:07.966Z,26.59
2016-09-02T12:12:08.714Z,26.74
2016-09-02T12:13:09.545Z,26.89
2016-09-02T12:14:08.753Z,26.89
2016-09-02T12:15:09.490Z,26.85
2016-09-02T12:16:09.525Z,26.97
2016-09-02T12:17:08.844Z,26.93
2016-09-02T12:18:08.963Z,27.05
2016-09-02T12:19:08.903Z,27.03
2016-09-02T12:20:09.043Z,27
2016-09-02T12:21:08.965Z,27.01
2016-09-02T12:22:09.707Z,27.07
2016-09-02T12:23:09.134Z,27.1
2016-09-02T12:24:09.751Z,27.15
2016-09-02T12:25:08.424Z,27.26
2016-09-02T12:26:09.812Z,27.44
2016-09-02T12:27:08.508Z,27.45
2016-09-02T12:28:09.162Z,27.57
2016-09-02T12:29:09.203Z,27.72
2016-09-02T12:30:09.742Z,27.75
2016-09-02T12:31:10.200Z,27.75
2016-09-02T12:32:09.985Z,27.76
2016-09-02T12:33:08.586Z,27.66
2016-09-02T12:34:10.042Z,27.66
2016-09-02T12:35:08.659Z,27.63
2016-09-02T12:36:10.084Z,27.38
2016-09-02T12:37:08.966Z,27.47
2016-09-02T12:38:10.206Z,27.23
2016-09-02T12:39:08.863Z,27.13
2016-09-02T12:40:10.210Z,27.08
2016-09-02T12:41:10.233Z,27.13
2016-09-02T12:42:08.849Z,27.03
2016-09-02T12:43:09.574Z,27.03
2016-09-02T12:44:09.746Z,27.1
2016-09-02T12:45:09.957Z,27.1
2016-09-02T12:46:10.382Z,27.11
2016-09-02T12:47:09.123Z,27.18
2016-09-02T12:48:09.826Z,27.18
2016-09-02T12:49:09.831Z,27.16
2016-09-02T12:50:10.610Z,27.05
2016-09-02T12:51:09.113Z,27.05
2016-09-02T12:52:09.863Z,26.93
2016-09-02T12:53:10.694Z,26.92
2016-09-02T12:54:09.907Z,26.96
2016-09-02T12:55:09.309Z,27.01
2016-09-02T12:56:09.943Z,27